Garland, Maine
Current Conditions -  °F | °C
As of 4:46 PM on Wednesday 17 Dec 2014 (Local Time) from KBGR Reporting Station
Light Rain Light Rain  
Wind Chill: 28°   Ceiling: 600
Heat Index: 36°   Visibility: 3mi
Dew Point: 35°   Wind: 12mph
Humidity: 97%   Direction: 10°N
Pressure: 29.7"   Gusts: NA
Location:  45.04°N, 69.16°W
Report Text: KBGR 172146Z 01010KT 3SM -RA BR BKN006 OVC010 02/02 A2970 RMK AO2 P0002 T00220017
Loading
Personal Weather Stations






























Interactive Weather Map New forecast layout! Learn more

10-Day Weather Forecast

Advertisements
Track Severe Weather on mobile